createdAt,value
2018-11-23T00:00:32.779Z,35.40
2018-11-23T00:03:02.328Z,28.73
2018-11-23T00:05:31.995Z,31.77
2018-11-23T00:08:01.337Z,31.67
2018-11-23T00:10:32.061Z,30.33
2018-11-23T00:13:01.130Z,29.10
2018-11-23T00:15:31.178Z,27.00
2018-11-23T00:18:00.359Z,25.33
2018-11-23T00:20:30.344Z,26.30
2018-11-23T00:22:59.422Z,29.60
2018-11-23T00:25:29.016Z,32.23
2018-11-23T00:27:58.618Z,29.87
2018-11-23T00:30:29.120Z,31.30
2018-11-23T00:32:58.394Z,30.93
2018-11-23T00:35:29.069Z,31.70
2018-11-23T00:37:58.185Z,31.90
2018-11-23T00:40:29.422Z,31.30
2018-11-23T00:42:58.990Z,34.17
2018-11-23T00:45:28.259Z,30.27
2018-11-23T00:47:58.270Z,28.00
2018-11-23T00:50:27.906Z,31.77
2018-11-23T00:52:58.295Z,33.43
2018-11-23T00:55:28.126Z,32.70
2018-11-23T00:57:57.277Z,35.50
2018-11-23T01:00:28.683Z,35.77
2018-11-23T01:02:58.589Z,31.23
2018-11-23T01:05:27.799Z,34.07
2018-11-23T01:07:57.955Z,37.47
2018-11-23T01:10:28.151Z,38.03
2018-11-23T01:12:57.997Z,37.63
2018-11-23T01:15:27.112Z,33.57
2018-11-23T01:17:56.195Z,35.87
2018-11-23T01:20:26.443Z,39.17
2018-11-23T01:22:56.248Z,41.00
2018-11-23T01:25:26.394Z,36.33
2018-11-23T01:27:56.212Z,38.27
2018-11-23T01:30:32.310Z,35.17
2018-11-23T01:33:01.504Z,35.40
2018-11-23T01:35:30.723Z,40.40
2018-11-23T01:38:00.080Z,41.40
2018-11-23T01:40:30.492Z,38.57
2018-11-23T01:43:00.394Z,42.53
2018-11-23T01:45:29.620Z,42.33
2018-11-23T01:47:58.735Z,47.27
2018-11-23T01:50:29.146Z,44.20
2018-11-23T01:52:58.687Z,46.93
2018-11-23T01:55:28.141Z,44.77
2018-11-23T01:57:57.275Z,40.50
2018-11-23T02:00:27.702Z,56.10
2018-11-23T02:02:57.451Z,46.63
2018-11-23T02:05:26.822Z,49.13
2018-11-23T02:07:55.961Z,49.83
2018-11-23T02:10:25.220Z,43.00
2018-11-23T02:12:55.143Z,44.87
2018-11-23T02:15:24.343Z,43.67
2018-11-23T02:17:53.480Z,46.07
2018-11-23T02:20:23.156Z,47.07
2018-11-23T02:22:52.432Z,47.17
2018-11-23T02:25:21.598Z,50.30
2018-11-23T02:27:50.966Z,47.10
2018-11-23T02:30:22.003Z,44.83
2018-11-23T02:32:53.221Z,43.07
2018-11-23T02:35:22.506Z,41.37
2018-11-23T02:37:51.668Z,41.43
2018-11-23T02:40:21.414Z,44.80
2018-11-23T02:42:51.192Z,42.63
2018-11-23T02:45:21.430Z,39.90
2018-11-23T02:47:50.792Z,43.00
2018-11-23T02:50:19.936Z,38.33
2018-11-23T02:52:49.219Z,38.17
2018-11-23T02:55:20.026Z,40.47
2018-11-23T02:57:49.166Z,40.87
2018-11-23T03:00:21.709Z,37.77
2018-11-23T03:02:51.013Z,41.33
2018-11-23T03:05:23.506Z,38.10
2018-11-23T03:07:52.973Z,42.60
2018-11-23T03:10:22.107Z,37.83
2018-11-23T03:12:52.239Z,37.60
2018-11-23T03:15:21.790Z,38.10
2018-11-23T03:17:51.366Z,41.57
2018-11-23T03:20:21.805Z,42.23
2018-11-23T03:22:50.991Z,40.87
2018-11-23T03:25:20.215Z,42.43
2018-11-23T03:27:49.399Z,36.50
2018-11-23T03:30:21.372Z,36.67
2018-11-23T03:32:51.238Z,40.90
2018-11-23T03:35:21.477Z,42.80
2018-11-23T03:37:50.777Z,40.10
2018-11-23T03:40:20.188Z,38.50
2018-11-23T03:42:49.266Z,42.80
2018-11-23T03:45:18.523Z,44.00
2018-11-23T03:47:47.671Z,42.37
2018-11-23T03:50:17.806Z,43.50
2018-11-23T03:52:47.216Z,46.17
2018-11-23T03:55:16.388Z,46.73
2018-11-23T03:57:45.569Z,43.37
2018-11-23T04:00:18.120Z,45.10
2018-11-23T04:02:47.540Z,48.97
2018-11-23T04:05:17.141Z,49.77
2018-11-23T04:07:46.442Z,49.10
2018-11-23T04:10:16.884Z,50.73
2018-11-23T04:12:46.371Z,45.17
2018-11-23T04:15:15.919Z,49.80
2018-11-23T04:17:45.136Z,48.87
2018-11-23T04:20:15.561Z,53.20
2018-11-23T04:22:44.868Z,47.60
2018-11-23T04:25:14.605Z,45.63
2018-11-23T04:27:44.162Z,50.93
2018-11-23T04:30:15.686Z,50.43
2018-11-23T04:32:45.202Z,77.83
2018-11-23T04:35:15.529Z,57.40
2018-11-23T04:37:45.664Z,53.23
2018-11-23T04:40:16.062Z,58.40
2018-11-23T04:42:45.316Z,66.10
2018-11-23T04:45:14.944Z,52.90
2018-11-23T04:47:44.304Z,55.23
2018-11-23T04:50:14.685Z,53.47
2018-11-23T04:52:44.243Z,50.73
2018-11-23T04:55:13.469Z,53.97
2018-11-23T04:57:43.154Z,58.30
2018-11-23T05:00:15.521Z,61.60
2018-11-23T05:02:45.870Z,54.33
2018-11-23T05:05:16.476Z,63.80
2018-11-23T05:07:46.769Z,59.70
2018-11-23T05:10:16.825Z,56.23
2018-11-23T05:12:46.222Z,58.50
2018-11-23T05:15:16.883Z,56.57
2018-11-23T05:17:46.211Z,55.03
2018-11-23T05:20:16.281Z,52.27
2018-11-23T05:22:45.895Z,53.90
2018-11-23T05:25:16.232Z,55.23
2018-11-23T05:27:45.266Z,54.43
2018-11-23T05:30:17.941Z,51.70
2018-11-23T05:32:47.283Z,54.67
2018-11-23T05:35:17.453Z,57.80
2018-11-23T05:37:46.764Z,59.23
2018-11-23T05:40:17.767Z,56.13
2018-11-23T05:42:46.901Z,63.77
2018-11-23T05:45:17.409Z,53.17
2018-11-23T05:47:46.951Z,52.73
2018-11-23T05:50:25.192Z,56.80
2018-11-23T05:52:55.405Z,61.70
2018-11-23T05:55:24.672Z,59.73
2018-11-23T05:57:54.284Z,57.10
2018-11-23T06:00:26.536Z,53.87
2018-11-23T06:02:55.671Z,56.47
2018-11-23T06:05:25.923Z,65.43
2018-11-23T06:07:54.962Z,62.03
2018-11-23T06:10:24.268Z,52.93
2018-11-23T06:12:54.110Z,64.47
2018-11-23T06:15:26.106Z,58.63
2018-11-23T06:17:55.190Z,70.90
2018-11-23T06:20:25.536Z,57.93
2018-11-23T06:22:55.616Z,65.27
2018-11-23T06:25:28.970Z,68.07
2018-11-23T06:27:58.093Z,66.40
2018-11-23T06:30:27.170Z,52.93
2018-11-23T06:33:07.102Z,66.57
2018-11-23T06:35:37.248Z,60.83
2018-11-23T06:38:06.484Z,59.70
2018-11-23T06:40:35.592Z,60.70
2018-11-23T06:43:04.951Z,74.07
2018-11-23T06:45:43.765Z,63.27
2018-11-23T06:48:13.019Z,65.47
2018-11-23T06:50:45.789Z,99.60
2018-11-23T06:53:14.965Z,60.03
2018-11-23T06:55:44.250Z,81.90
2018-11-23T06:58:13.405Z,66.27
2018-11-23T07:00:42.605Z,68.93
2018-11-23T07:03:11.764Z,67.17
2018-11-23T07:05:40.959Z,68.77
2018-11-23T07:08:11.069Z,66.13
2018-11-23T07:10:40.367Z,66.83
2018-11-23T07:13:10.016Z,67.40
2018-11-23T07:15:40.695Z,62.10
2018-11-23T07:18:09.891Z,73.37
2018-11-23T07:20:39.791Z,66.47
2018-11-23T07:23:12.050Z,61.53
2018-11-23T07:25:41.218Z,66.37
2018-11-23T07:28:15.443Z,69.10
2018-11-23T07:30:39.563Z,72.10
2018-11-23T07:33:09.355Z,67.90
2018-11-23T07:35:38.340Z,63.47
2018-11-23T07:38:07.767Z,69.90
2018-11-23T07:40:48.935Z,68.90
2018-11-23T07:43:18.142Z,63.20
2018-11-23T07:45:47.299Z,61.10
2018-11-23T07:48:17.380Z,68.17
2018-11-23T07:50:46.663Z,67.20
2018-11-23T07:53:15.877Z,65.47
2018-11-23T07:55:45.073Z,63.23
2018-11-23T07:58:14.198Z,68.37
2018-11-23T08:00:43.371Z,66.00
2018-11-23T08:03:12.519Z,75.27
2018-11-23T08:05:41.577Z,66.70
2018-11-23T08:08:10.831Z,69.80
2018-11-23T08:10:39.057Z,72.77
2018-11-23T08:13:08.121Z,74.37
2018-11-23T08:15:37.249Z,78.10
2018-11-23T08:18:06.561Z,68.67
2018-11-23T08:20:35.695Z,69.40
2018-11-23T08:23:04.963Z,62.30
2018-11-23T08:25:34.122Z,67.13
2018-11-23T08:28:03.389Z,70.73
2018-11-23T08:30:32.587Z,71.07
2018-11-23T08:33:01.843Z,61.17
2018-11-23T08:35:31.275Z,67.07
2018-11-23T08:38:01.264Z,70.07
2018-11-23T08:40:30.924Z,66.20
2018-11-23T08:43:00.137Z,60.63
2018-11-23T08:45:29.325Z,66.80
2018-11-23T08:47:58.468Z,64.27
2018-11-23T08:50:29.063Z,64.37
2018-11-23T08:52:58.448Z,69.03
2018-11-23T08:55:28.023Z,64.53
2018-11-23T08:57:59.421Z,75.27
2018-11-23T09:00:29.255Z,68.27
2018-11-23T09:03:03.601Z,69.03
2018-11-23T09:05:33.559Z,64.60
2018-11-23T09:08:02.757Z,56.00
2018-11-23T09:10:32.392Z,63.20
2018-11-23T09:13:03.210Z,70.10
2018-11-23T09:15:34.102Z,64.27
2018-11-23T09:18:04.232Z,67.53
2018-11-23T09:20:35.616Z,61.00
2018-11-23T09:23:05.715Z,66.90
2018-11-23T09:25:38.495Z,67.83
2018-11-23T09:28:07.904Z,78.83
2018-11-23T09:30:37.109Z,62.17
2018-11-23T09:33:07.732Z,64.73
2018-11-23T09:35:37.075Z,64.23
2018-11-23T09:38:07.461Z,59.40
2018-11-23T09:40:36.670Z,65.50
2018-11-23T09:43:06.334Z,59.83
2018-11-23T09:45:35.683Z,64.90
2018-11-23T09:48:13.279Z,59.17
2018-11-23T09:50:42.509Z,64.93
2018-11-23T09:53:12.571Z,61.47
2018-11-23T09:55:41.724Z,58.37
2018-11-23T09:58:10.835Z,54.53
2018-11-23T10:00:40.170Z,58.73
2018-11-23T10:03:10.121Z,58.00
2018-11-23T10:05:39.300Z,59.23
2018-11-23T10:08:08.820Z,58.37
2018-11-23T10:10:37.899Z,60.27
2018-11-23T10:13:07.084Z,56.33
2018-11-23T10:15:36.108Z,60.93
2018-11-23T10:18:05.547Z,66.60
2018-11-23T10:20:35.330Z,59.87
2018-11-23T10:23:04.595Z,54.33
2018-11-23T10:25:34.953Z,61.60
2018-11-23T10:28:04.056Z,53.67
2018-11-23T10:30:34.667Z,54.83
2018-11-23T10:33:05.255Z,60.50
2018-11-23T10:35:34.556Z,55.27
2018-11-23T10:38:07.331Z,54.03
2018-11-23T10:40:40.774Z,56.83
2018-11-23T10:43:10.834Z,63.37
2018-11-23T10:45:40.035Z,54.30
2018-11-23T10:48:09.755Z,51.87
2018-11-23T10:50:40.988Z,55.03
2018-11-23T10:53:10.275Z,48.77
2018-11-23T10:55:39.403Z,56.73
2018-11-23T10:58:08.513Z,55.10
2018-11-23T11:00:42.606Z,47.37
2018-11-23T11:03:17.087Z,52.67
2018-11-23T11:05:51.985Z,53.10
2018-11-23T11:08:21.897Z,53.53
2018-11-23T11:10:51.240Z,51.73
2018-11-23T11:13:20.924Z,51.77
2018-11-23T11:15:50.103Z,49.20
2018-11-23T11:18:19.375Z,50.77
2018-11-23T11:20:57.531Z,47.73
2018-11-23T11:23:26.671Z,49.33
2018-11-23T11:25:56.020Z,47.83
2018-11-23T11:28:25.173Z,46.50
2018-11-23T11:30:54.424Z,49.37
2018-11-23T11:33:23.697Z,48.53
2018-11-23T11:35:52.952Z,57.87
2018-11-23T11:38:22.171Z,50.30
2018-11-23T11:40:51.268Z,47.77
2018-11-23T11:43:20.267Z,50.20
2018-11-23T11:45:50.121Z,53.83
2018-11-23T11:48:19.192Z,47.57
2018-11-23T11:50:55.433Z,46.67
2018-11-23T11:53:24.680Z,47.33
2018-11-23T11:55:53.864Z,46.73
2018-11-23T11:58:23.165Z,46.93
2018-11-23T12:00:52.794Z,49.73
2018-11-23T12:03:21.957Z,44.37
2018-11-23T12:05:51.465Z,44.33
2018-11-23T12:08:20.772Z,44.20
2018-11-23T12:10:49.957Z,53.17
2018-11-23T12:13:19.860Z,44.70
2018-11-23T12:15:49.116Z,39.60
2018-11-23T12:18:18.198Z,45.03
2018-11-23T12:20:47.406Z,40.13
2018-11-23T12:23:16.845Z,47.60
2018-11-23T12:25:47.013Z,43.07
2018-11-23T12:28:16.122Z,40.07
2018-11-23T12:30:45.314Z,37.93
2018-11-23T12:33:14.507Z,36.93
2018-11-23T12:35:43.704Z,37.37
2018-11-23T12:38:12.784Z,44.90
2018-11-23T12:40:42.316Z,40.37
2018-11-23T12:43:11.381Z,44.10
2018-11-23T12:45:44.582Z,39.10
2018-11-23T12:48:13.783Z,37.20
2018-11-23T12:50:42.976Z,38.90
2018-11-23T12:53:12.236Z,36.73
2018-11-23T12:55:42.316Z,39.33
2018-11-23T12:58:11.482Z,34.20
2018-11-23T13:00:40.655Z,36.83
2018-11-23T13:03:09.768Z,36.70
2018-11-23T13:05:39.030Z,39.73
2018-11-23T13:08:08.201Z,35.97
2018-11-23T13:10:37.500Z,36.20
2018-11-23T13:13:09.431Z,37.47
2018-11-23T13:15:40.057Z,38.90
2018-11-23T13:18:09.956Z,37.77
2018-11-23T13:20:40.910Z,37.27
2018-11-23T13:23:10.547Z,36.80
2018-11-23T13:25:40.339Z,40.23
2018-11-23T13:28:09.486Z,32.83
2018-11-23T13:30:38.814Z,38.50
2018-11-23T13:33:08.058Z,36.97
2018-11-23T13:35:38.296Z,34.83
2018-11-23T13:38:14.821Z,35.23
2018-11-23T13:40:44.063Z,30.77
2018-11-23T13:43:14.171Z,32.03
2018-11-23T13:45:43.423Z,32.97
2018-11-23T13:48:19.680Z,38.13
2018-11-23T13:50:42.701Z,33.43
2018-11-23T13:53:13.240Z,37.60
2018-11-23T13:55:42.351Z,30.40
2018-11-23T13:58:12.175Z,32.80
2018-11-23T14:00:41.508Z,29.87
2018-11-23T14:03:10.926Z,29.63
2018-11-23T14:05:41.796Z,35.17
2018-11-23T14:08:10.919Z,29.43
2018-11-23T14:10:40.120Z,30.93
2018-11-23T14:13:11.529Z,33.33
2018-11-23T14:15:38.580Z,35.40
2018-11-23T14:18:07.687Z,36.10
2018-11-23T14:20:36.894Z,29.47
2018-11-23T14:23:06.849Z,33.90
2018-11-23T14:25:36.097Z,28.90
2018-11-23T14:28:05.685Z,31.87
2018-11-23T14:30:35.245Z,28.40
2018-11-23T14:33:05.040Z,31.10
2018-11-23T14:35:35.275Z,30.37
2018-11-23T14:38:04.652Z,30.30
2018-11-23T14:40:33.787Z,33.37
2018-11-23T14:43:03.164Z,37.17
2018-11-23T14:45:37.330Z,28.03
2018-11-23T14:48:08.154Z,34.97
2018-11-23T14:50:41.417Z,29.93
2018-11-23T14:53:11.600Z,29.43
2018-11-23T14:55:52.871Z,34.47
2018-11-23T14:58:29.599Z,36.13
2018-11-23T15:00:58.700Z,27.70
2018-11-23T15:03:28.368Z,32.33
2018-11-23T15:05:57.495Z,36.30
2018-11-23T15:08:26.807Z,35.13
2018-11-23T15:10:56.015Z,34.70
2018-11-23T15:13:25.180Z,35.63
2018-11-23T15:15:54.316Z,33.10
2018-11-23T15:18:23.575Z,31.73
2018-11-23T15:20:54.809Z,80.77
2018-11-23T15:23:24.317Z,34.00
2018-11-23T15:25:54.039Z,64.73
2018-11-23T15:28:34.179Z,41.67
2018-11-23T15:31:03.358Z,34.70
2018-11-23T15:33:32.657Z,37.30
2018-11-23T15:36:01.881Z,40.60
2018-11-23T15:38:31.062Z,35.23
2018-11-23T15:41:00.363Z,37.30
2018-11-23T15:43:29.458Z,38.23
2018-11-23T15:45:58.504Z,37.70
2018-11-23T15:48:28.579Z,44.00
2018-11-23T15:51:01.842Z,32.97
2018-11-23T15:53:31.055Z,35.10
2018-11-23T15:56:00.233Z,39.73
2018-11-23T15:58:30.246Z,37.87
2018-11-23T16:01:09.409Z,40.07
2018-11-23T16:03:38.659Z,42.20
2018-11-23T16:06:07.909Z,37.43
2018-11-23T16:08:37.148Z,39.83
2018-11-23T16:11:06.379Z,38.97
2018-11-23T16:13:35.547Z,41.40
2018-11-23T16:16:04.722Z,39.73
2018-11-23T16:18:33.845Z,37.37
2018-11-23T16:21:03.003Z,35.70
2018-11-23T16:23:32.313Z,36.77
2018-11-23T16:26:01.545Z,35.97
2018-11-23T16:28:49.757Z,35.27
2018-11-23T16:31:19.394Z,37.13
2018-11-23T16:33:48.427Z,40.17
2018-11-23T16:36:17.642Z,46.67
2018-11-23T16:38:46.880Z,40.57
2018-11-23T16:41:16.568Z,42.70
2018-11-23T16:43:46.511Z,41.40
2018-11-23T16:46:17.738Z,43.73
2018-11-23T16:48:47.007Z,39.67
2018-11-23T16:51:16.169Z,38.40
2018-11-23T16:53:46.929Z,42.67
2018-11-23T16:56:23.874Z,39.77
2018-11-23T16:58:53.781Z,38.37
2018-11-23T17:01:23.463Z,43.23
2018-11-23T17:03:52.854Z,54.57
2018-11-23T17:06:22.017Z,42.33
2018-11-23T17:08:51.250Z,42.20
2018-11-23T17:11:21.472Z,43.53
2018-11-23T17:13:51.456Z,41.37
2018-11-23T17:16:21.861Z,47.60
2018-11-23T17:18:50.992Z,45.40
2018-11-23T17:24:11.392Z,42.27
2018-11-23T17:26:40.565Z,45.40
2018-11-23T17:29:14.512Z,39.83
2018-11-23T17:31:43.773Z,40.63
2018-11-23T17:34:13.370Z,40.00
2018-11-23T17:36:42.468Z,43.03
2018-11-23T17:39:12.446Z,36.83
2018-11-23T17:41:41.579Z,39.33
2018-11-23T17:44:11.463Z,38.57
2018-11-23T17:46:41.657Z,37.77
2018-11-23T17:49:14.927Z,35.47
2018-11-23T17:51:44.179Z,38.33
2018-11-23T17:54:14.943Z,39.70
2018-11-23T17:56:44.112Z,41.60
2018-11-23T17:59:21.013Z,45.00
2018-11-23T18:01:50.923Z,41.63
2018-11-23T18:04:20.048Z,39.37
2018-11-23T18:06:49.265Z,45.63
2018-11-23T18:09:18.427Z,40.63
2018-11-23T18:11:48.174Z,40.30
2018-11-23T18:14:17.468Z,38.60
2018-11-23T18:16:49.755Z,45.30
2018-11-23T18:19:19.072Z,42.43
2018-11-23T18:21:48.306Z,36.40
2018-11-23T18:24:24.133Z,44.23
2018-11-23T18:26:53.339Z,52.67
2018-11-23T18:29:25.045Z,35.73
2018-11-23T18:31:54.248Z,39.83
2018-11-23T18:34:23.460Z,44.13
2018-11-23T18:36:52.604Z,42.13
2018-11-23T18:39:22.383Z,41.50
2018-11-23T18:41:52.104Z,42.20
2018-11-23T18:44:21.251Z,43.03
2018-11-23T18:46:50.502Z,48.63
2018-11-23T18:49:19.768Z,49.90
2018-11-23T18:51:51.632Z,46.30
2018-11-23T18:54:20.911Z,46.40
2018-11-23T18:56:50.261Z,42.87
2018-11-23T18:59:19.500Z,45.87
2018-11-23T19:01:48.708Z,46.13
2018-11-23T19:04:18.467Z,51.40
2018-11-23T19:06:48.430Z,46.33
2018-11-23T19:09:18.076Z,49.93
2018-11-23T19:11:47.249Z,47.43
2018-11-23T19:14:16.599Z,45.60
2018-11-23T19:16:47.082Z,49.97
2018-11-23T19:19:16.277Z,46.67
2018-11-23T19:21:45.280Z,49.53
2018-11-23T19:24:14.466Z,47.00
2018-11-23T19:26:43.701Z,44.57
2018-11-23T19:31:47.215Z,47.70
2018-11-23T19:34:16.387Z,45.90
2018-11-23T19:36:45.572Z,45.43
2018-11-23T19:39:18.587Z,43.53
2018-11-23T19:41:47.798Z,39.70
2018-11-23T19:44:16.940Z,45.67
2018-11-23T19:46:45.975Z,43.13
2018-11-23T19:49:15.173Z,49.10
2018-11-23T19:51:44.283Z,48.63
2018-11-23T19:54:13.863Z,43.40
2018-11-23T19:56:43.067Z,42.53
2018-11-23T19:59:13.271Z,46.50
2018-11-23T20:01:45.555Z,47.77
2018-11-23T20:04:14.819Z,44.20
2018-11-23T20:06:44.055Z,48.07
2018-11-23T20:09:16.391Z,43.87
2018-11-23T20:11:45.592Z,45.83
2018-11-23T20:14:17.906Z,43.10
2018-11-23T20:16:47.139Z,45.03
2018-11-23T20:19:27.837Z,44.67
2018-11-23T20:22:07.260Z,42.30
2018-11-23T20:24:36.526Z,45.10
2018-11-23T20:27:05.807Z,45.10
2018-11-23T20:29:35.400Z,38.53
2018-11-23T20:32:04.267Z,45.67
2018-11-23T20:34:33.665Z,40.67
2018-11-23T20:37:02.780Z,45.10
2018-11-23T20:39:32.031Z,36.60
2018-11-23T20:42:01.204Z,38.07
2018-11-23T20:44:31.989Z,40.70
2018-11-23T20:47:01.192Z,34.93
2018-11-23T20:49:30.312Z,33.37
2018-11-23T20:51:59.575Z,35.37
2018-11-23T20:54:28.732Z,38.27
2018-11-23T20:56:58.891Z,37.57
2018-11-23T20:59:28.830Z,34.97
2018-11-23T21:01:58.116Z,31.70
2018-11-23T21:04:27.311Z,30.40
2018-11-23T21:06:56.472Z,31.90
2018-11-23T21:09:31.007Z,32.07
2018-11-23T21:11:55.055Z,29.00
2018-11-23T21:14:24.313Z,37.37
2018-11-23T21:16:53.459Z,34.27
2018-11-23T21:19:22.655Z,32.33
2018-11-23T21:21:51.904Z,32.07
2018-11-23T21:24:21.632Z,33.00
2018-11-23T21:26:50.915Z,30.23
2018-11-23T21:29:20.040Z,34.80
2018-11-23T21:31:49.963Z,34.13
2018-11-23T21:34:24.103Z,32.57
2018-11-23T21:36:53.436Z,37.10
2018-11-23T21:39:22.775Z,34.63
2018-11-23T21:41:51.958Z,38.63
2018-11-23T21:44:21.106Z,33.17
2018-11-23T21:46:50.330Z,32.60
2018-11-23T21:49:19.563Z,37.23
2018-11-23T21:51:48.630Z,36.03
2018-11-23T21:54:17.933Z,32.90
2018-11-23T21:56:48.183Z,37.23
2018-11-23T21:59:18.059Z,33.47
2018-11-23T22:01:47.176Z,33.17
2018-11-23T22:04:16.381Z,31.80
2018-11-23T22:06:50.362Z,29.50
2018-11-23T22:09:19.570Z,30.30
2018-11-23T22:11:52.401Z,27.03
2018-11-23T22:14:18.050Z,25.67
2018-11-23T22:16:47.802Z,28.93
2018-11-23T22:19:17.642Z,27.63
2018-11-23T22:21:47.642Z,38.60
2018-11-23T22:24:16.835Z,31.43
2018-11-23T22:26:46.045Z,29.27
2018-11-23T22:29:15.137Z,30.13
2018-11-23T22:31:44.311Z,33.33
2018-11-23T22:34:13.435Z,29.10
2018-11-23T22:36:42.539Z,31.70
2018-11-23T22:39:11.675Z,27.30
2018-11-23T22:41:40.793Z,25.43
2018-11-23T22:44:10.079Z,34.03
2018-11-23T22:47:06.012Z,29.73
2018-11-23T22:49:35.127Z,30.33
2018-11-23T22:52:05.015Z,27.77
2018-11-23T22:54:34.145Z,30.03
2018-11-23T22:57:13.448Z,36.70
2018-11-23T22:59:42.535Z,31.67
2018-11-23T23:02:20.588Z,27.57
2018-11-23T23:04:49.742Z,31.23
2018-11-23T23:07:18.866Z,28.40
2018-11-23T23:09:48.810Z,29.13
2018-11-23T23:12:27.917Z,31.93
2018-11-23T23:14:57.187Z,29.23
2018-11-23T23:17:30.113Z,28.77
2018-11-23T23:19:59.135Z,31.27
2018-11-23T23:22:28.293Z,29.90
2018-11-23T23:24:57.527Z,31.23
2018-11-23T23:27:26.658Z,34.90
2018-11-23T23:29:55.852Z,30.47
2018-11-23T23:32:25.100Z,29.93
2018-11-23T23:34:54.255Z,30.33
2018-11-23T23:37:23.453Z,33.57
2018-11-23T23:39:52.648Z,26.27
2018-11-23T23:42:22.449Z,29.73
2018-11-23T23:44:51.558Z,35.00
2018-11-23T23:47:25.330Z,29.70
2018-11-23T23:49:54.492Z,28.67
2018-11-23T23:52:24.606Z,33.70
2018-11-23T23:54:53.790Z,30.63
2018-11-23T23:57:22.943Z,29.63
2018-11-23T23:59:52.741Z,29.57
